createdAt,value
2023-02-21T00:01:37.975Z,7.98
2023-02-21T00:04:23.069Z,7.97
2023-02-21T00:07:07.881Z,7.94
2023-02-21T00:09:52.802Z,7.88
2023-02-21T00:12:37.949Z,7.86
2023-02-21T00:15:23.413Z,7.81
2023-02-21T00:18:08.564Z,7.75
2023-02-21T00:20:53.498Z,7.69
2023-02-21T00:23:38.477Z,7.61
2023-02-21T00:26:24.051Z,7.54
2023-02-21T00:29:08.847Z,7.50
2023-02-21T00:31:53.623Z,7.47
2023-02-21T00:34:38.561Z,7.45
2023-02-21T00:37:23.610Z,7.46
2023-02-21T00:40:08.461Z,7.45
2023-02-21T00:42:53.251Z,7.41
2023-02-21T00:45:38.034Z,7.38
2023-02-21T00:48:23.177Z,7.30
2023-02-21T00:51:07.998Z,7.25
2023-02-21T00:53:52.871Z,7.20
2023-02-21T00:56:37.948Z,7.15
2023-02-21T00:59:22.871Z,7.12
2023-02-21T01:02:07.774Z,7.09
2023-02-21T01:04:52.809Z,7.05
2023-02-21T01:07:38.189Z,7.00
2023-02-21T01:10:23.350Z,6.94
2023-02-21T01:13:08.257Z,6.90
2023-02-21T01:15:53.150Z,6.87
2023-02-21T01:18:38.326Z,6.87
2023-02-21T01:21:23.804Z,6.84
2023-02-21T01:24:08.645Z,6.83
2023-02-21T01:26:54.023Z,6.86
2023-02-21T01:29:38.905Z,6.88
2023-02-21T01:32:23.888Z,6.92
2023-02-21T01:35:08.820Z,6.96
2023-02-21T01:37:53.738Z,7.00
2023-02-21T01:40:38.922Z,7.07
2023-02-21T01:43:34.088Z,7.11
2023-02-21T01:46:19.540Z,7.15
2023-02-21T01:49:06.559Z,7.21
2023-02-21T01:51:57.034Z,7.28
2023-02-21T01:54:46.218Z,7.33
2023-02-21T01:57:32.666Z,7.35
2023-02-21T02:00:20.976Z,7.41
2023-02-21T02:03:16.019Z,7.43
2023-02-21T02:06:06.333Z,7.47
2023-02-21T02:08:52.218Z,7.49
2023-02-21T02:11:58.761Z,7.53
2023-02-21T02:14:47.924Z,7.52
2023-02-21T02:17:39.178Z,7.51
2023-02-21T02:20:30.290Z,7.51
2023-02-21T02:23:11.845Z,7.53
2023-02-21T02:25:41.008Z,7.49
2023-02-21T02:28:22.085Z,7.49
2023-02-21T02:31:11.581Z,7.51
2023-02-21T02:34:07.022Z,7.53
2023-02-21T02:36:40.815Z,7.55
2023-02-21T02:39:28.034Z,7.58
2023-02-21T02:42:19.219Z,7.58
2023-02-21T02:44:53.262Z,7.59
2023-02-21T02:47:34.437Z,7.60
2023-02-21T02:50:02.748Z,7.60
2023-02-21T02:52:29.126Z,7.63
2023-02-21T02:55:01.017Z,7.65
2023-02-21T02:57:38.358Z,7.68
2023-02-21T03:00:06.888Z,7.69
2023-02-21T03:03:07.465Z,7.73
2023-02-21T03:05:56.047Z,7.75
2023-02-21T03:08:59.582Z,7.77
2023-02-21T03:11:26.860Z,7.78
2023-02-21T03:13:58.508Z,7.80
2023-02-21T03:16:38.192Z,7.78
2023-02-21T03:19:12.369Z,7.78
2023-02-21T03:21:43.392Z,7.77
2023-02-21T03:24:13.120Z,7.77
2023-02-21T03:26:44.638Z,7.78
2023-02-21T03:29:12.063Z,7.74
2023-02-21T03:31:46.121Z,7.73
2023-02-21T03:34:12.939Z,7.73
2023-02-21T03:36:39.836Z,7.73
2023-02-21T03:39:06.283Z,7.74
2023-02-21T03:41:32.702Z,7.75
2023-02-21T03:43:59.279Z,7.75
2023-02-21T03:46:25.721Z,7.72
2023-02-21T03:48:52.606Z,7.71
2023-02-21T03:51:19.090Z,7.69
2023-02-21T03:53:45.561Z,7.67
2023-02-21T03:56:12.013Z,7.65
2023-02-21T03:58:38.548Z,7.61
2023-02-21T04:01:05.428Z,7.55
2023-02-21T04:03:31.945Z,7.52
2023-02-21T04:05:58.437Z,7.52
2023-02-21T04:08:25.120Z,7.50
2023-02-21T04:10:52.830Z,7.50
2023-02-21T04:13:20.116Z,7.51
2023-02-21T04:15:46.724Z,7.52
2023-02-21T04:18:13.337Z,7.56
2023-02-21T04:20:39.781Z,7.56
2023-02-21T04:23:06.222Z,7.54
2023-02-21T04:25:32.733Z,7.53
2023-02-21T04:27:59.468Z,7.52
2023-02-21T04:30:25.883Z,7.49
2023-02-21T04:32:52.437Z,7.46
2023-02-21T04:35:18.874Z,7.43
2023-02-21T04:37:46.132Z,7.42
2023-02-21T04:40:12.665Z,7.38
2023-02-21T04:42:39.216Z,7.34
2023-02-21T04:45:06.146Z,7.29
2023-02-21T04:47:32.576Z,7.24
2023-02-21T04:49:59.067Z,7.18
2023-02-21T04:52:25.616Z,7.13
2023-02-21T04:54:51.987Z,7.07
2023-02-21T04:57:18.435Z,6.99
2023-02-21T04:59:44.883Z,6.93
2023-02-21T05:02:11.645Z,6.88
2023-02-21T05:04:40.520Z,6.84
2023-02-21T05:07:07.054Z,6.82
2023-02-21T05:09:33.527Z,6.80
2023-02-21T05:12:00.029Z,6.78
2023-02-21T05:14:26.482Z,6.77
2023-02-21T05:16:53.225Z,6.75
2023-02-21T05:19:27.565Z,6.73
2023-02-21T05:21:56.727Z,6.72
2023-02-21T05:24:24.380Z,6.68
2023-02-21T05:26:51.675Z,6.68
2023-02-21T05:29:19.065Z,6.67
2023-02-21T05:31:47.044Z,6.66
2023-02-21T05:34:15.346Z,6.62
2023-02-21T05:36:42.163Z,6.57
2023-02-21T05:39:09.640Z,6.55
2023-02-21T05:41:36.564Z,6.52
2023-02-21T05:44:04.276Z,6.51
2023-02-21T05:46:33.845Z,6.48
2023-02-21T05:49:02.212Z,6.43
2023-02-21T05:51:34.384Z,6.40
2023-02-21T05:54:00.832Z,6.34
2023-02-21T05:56:27.336Z,6.27
2023-02-21T05:58:53.882Z,6.20
2023-02-21T06:01:20.332Z,6.14
2023-02-21T06:03:46.932Z,6.10
2023-02-21T06:06:16.116Z,6.06
2023-02-21T06:08:44.497Z,6.05
2023-02-21T06:11:11.217Z,6.04
2023-02-21T06:13:38.037Z,6.00
2023-02-21T06:16:04.835Z,5.99
2023-02-21T06:18:31.273Z,5.96
2023-02-21T06:20:57.731Z,5.95
2023-02-21T06:23:24.202Z,5.91
2023-02-21T06:25:50.646Z,5.88
2023-02-21T06:28:17.829Z,5.85
2023-02-21T06:30:44.485Z,5.81
2023-02-21T06:33:10.934Z,5.79
2023-02-21T06:35:37.363Z,5.76
2023-02-21T06:38:03.771Z,5.73
2023-02-21T06:40:30.120Z,5.70
2023-02-21T06:42:56.499Z,5.68
2023-02-21T06:45:22.951Z,5.65
2023-02-21T06:47:49.342Z,5.62
2023-02-21T06:50:15.810Z,5.60
2023-02-21T06:52:42.216Z,5.57
2023-02-21T06:55:09.642Z,5.55
2023-02-21T06:57:36.137Z,5.54
2023-02-21T07:00:04.765Z,5.55
2023-02-21T07:02:31.253Z,5.51
2023-02-21T07:04:57.711Z,5.51
2023-02-21T07:07:24.191Z,5.49
2023-02-21T07:09:50.595Z,5.48
2023-02-21T07:12:16.993Z,5.47
2023-02-21T07:14:43.387Z,5.47
2023-02-21T07:17:09.757Z,5.47
2023-02-21T07:19:36.176Z,5.51
2023-02-21T07:22:02.655Z,5.53
2023-02-21T07:24:29.060Z,5.58
2023-02-21T07:26:55.693Z,5.62
2023-02-21T07:29:22.213Z,5.64
2023-02-21T07:31:48.738Z,5.67
2023-02-21T07:34:15.235Z,5.71
2023-02-21T07:36:41.663Z,5.76
2023-02-21T07:39:08.042Z,5.80
2023-02-21T07:41:34.506Z,5.85
2023-02-21T07:44:00.930Z,5.90
2023-02-21T07:46:28.825Z,5.98
2023-02-21T07:48:56.134Z,6.03
2023-02-21T07:51:23.063Z,6.08
2023-02-21T07:53:49.516Z,6.16
2023-02-21T07:56:15.955Z,6.22
2023-02-21T07:58:42.364Z,6.29
2023-02-21T08:01:09.439Z,6.35
2023-02-21T08:03:37.748Z,6.41
2023-02-21T08:06:04.991Z,6.48
2023-02-21T08:08:31.480Z,6.55
2023-02-21T08:10:57.936Z,6.61
2023-02-21T08:13:24.350Z,6.68
2023-02-21T08:15:50.871Z,6.74
2023-02-21T08:18:24.023Z,6.81
2023-02-21T08:20:52.391Z,6.89
2023-02-21T08:23:19.427Z,6.96
2023-02-21T08:25:46.398Z,7.03
2023-02-21T08:28:14.142Z,7.11
2023-02-21T08:30:40.655Z,7.18
2023-02-21T08:33:07.412Z,7.26
2023-02-21T08:35:33.893Z,7.31
2023-02-21T08:38:03.926Z,7.34
2023-02-21T08:40:31.522Z,7.42
2023-02-21T08:42:59.700Z,7.47
2023-02-21T08:45:28.436Z,7.51
2023-02-21T08:47:55.576Z,7.57
2023-02-21T08:50:24.030Z,7.64
2023-02-21T08:52:51.257Z,7.69
2023-02-21T08:55:19.716Z,7.75
2023-02-21T08:57:49.611Z,7.84
2023-02-21T09:00:17.464Z,7.90
2023-02-21T09:02:44.512Z,7.97
2023-02-21T09:05:14.704Z,8.03
2023-02-21T09:07:41.810Z,8.06
2023-02-21T09:10:10.646Z,8.15
2023-02-21T09:12:38.063Z,8.23
2023-02-21T09:15:05.827Z,8.32
2023-02-21T09:17:35.005Z,8.24
2023-02-21T09:20:06.610Z,8.28
2023-02-21T09:22:33.573Z,8.43
2023-02-21T09:25:00.996Z,8.51
2023-02-21T09:27:36.677Z,8.60
2023-02-21T09:30:18.794Z,8.72
2023-02-21T09:32:45.319Z,8.84
2023-02-21T09:35:15.366Z,8.98
2023-02-21T09:37:45.579Z,9.09
2023-02-21T09:40:24.310Z,9.21
2023-02-21T09:42:56.786Z,9.29
2023-02-21T09:45:30.424Z,9.34
2023-02-21T09:48:01.234Z,9.40
2023-02-21T09:50:34.356Z,9.59
2023-02-21T09:53:01.383Z,9.60
2023-02-21T09:55:34.086Z,9.68
2023-02-21T09:58:01.611Z,9.75
2023-02-21T10:00:38.395Z,9.84
2023-02-21T10:03:42.358Z,9.94
2023-02-21T10:06:42.440Z,9.93
2023-02-21T10:09:24.763Z,10.13
2023-02-21T10:12:20.551Z,10.46
2023-02-21T10:15:11.866Z,10.71
2023-02-21T10:17:47.622Z,10.87
2023-02-21T10:20:24.598Z,11.09
2023-02-21T10:22:55.977Z,11.43
2023-02-21T10:25:29.073Z,11.71
2023-02-21T10:27:56.800Z,11.98
2023-02-21T10:30:26.399Z,12.32
2023-02-21T10:32:53.869Z,12.62
2023-02-21T10:35:20.305Z,12.67
2023-02-21T10:37:56.163Z,12.34
2023-02-21T10:40:30.610Z,12.66
2023-02-21T10:43:16.416Z,12.61
2023-02-21T10:45:50.873Z,12.67
2023-02-21T10:48:21.459Z,12.78
2023-02-21T10:50:52.032Z,13.04
2023-02-21T10:53:39.613Z,13.28
2023-02-21T10:56:15.245Z,13.61
2023-02-21T10:58:47.548Z,13.91
2023-02-21T11:01:33.259Z,13.90
2023-02-21T11:04:06.824Z,14.07
2023-02-21T11:06:44.516Z,14.14
2023-02-21T11:09:27.134Z,14.19
2023-02-21T11:12:15.638Z,14.31
2023-02-21T11:14:44.366Z,14.46
2023-02-21T11:17:16.746Z,14.53
2023-02-21T11:19:56.492Z,14.50
2023-02-21T11:22:35.352Z,14.68
2023-02-21T11:25:38.230Z,14.92
2023-02-21T11:28:20.593Z,15.01
2023-02-21T11:30:59.212Z,15.16
2023-02-21T11:33:25.795Z,14.92
2023-02-21T11:36:05.933Z,15.15
2023-02-21T11:38:43.347Z,15.21
2023-02-21T11:41:21.942Z,15.09
2023-02-21T11:43:53.725Z,14.92
2023-02-21T11:46:42.258Z,15.32
2023-02-21T11:49:18.723Z,15.61
2023-02-21T11:52:02.389Z,15.96
2023-02-21T11:54:30.564Z,16.14
2023-02-21T11:57:08.963Z,16.10
2023-02-21T11:59:38.341Z,16.23
2023-02-21T12:02:25.935Z,16.24
2023-02-21T12:05:06.651Z,16.49
2023-02-21T12:07:59.921Z,16.59
2023-02-21T12:11:02.624Z,16.72
2023-02-21T12:13:38.893Z,16.80
2023-02-21T12:16:29.710Z,16.83
2023-02-21T12:19:23.759Z,16.89
2023-02-21T12:22:20.714Z,17.09
2023-02-21T12:25:11.372Z,16.69
2023-02-21T12:28:07.670Z,17.12
2023-02-21T12:31:02.319Z,17.28
2023-02-21T12:33:44.329Z,17.40
2023-02-21T12:36:23.988Z,17.26
2023-02-21T12:39:23.800Z,17.35
2023-02-21T12:42:02.846Z,17.59
2023-02-21T12:44:41.351Z,17.81
2023-02-21T12:47:18.284Z,17.77
2023-02-21T12:49:46.111Z,17.86
2023-02-21T12:52:40.895Z,18.19
2023-02-21T12:55:18.406Z,18.51
2023-02-21T12:57:54.407Z,18.49
2023-02-21T13:00:25.080Z,18.83
2023-02-21T13:03:00.869Z,18.83
2023-02-21T13:05:42.571Z,18.88
2023-02-21T13:08:20.764Z,19.02
2023-02-21T13:11:10.228Z,19.07
2023-02-21T13:13:36.940Z,19.19
2023-02-21T13:16:07.821Z,19.22
2023-02-21T13:18:36.899Z,19.19
2023-02-21T13:21:34.863Z,19.06
2023-02-21T13:24:32.426Z,19.40
2023-02-21T13:27:24.774Z,19.31
2023-02-21T13:29:51.639Z,19.29
2023-02-21T13:32:22.580Z,19.53
2023-02-21T13:35:00.692Z,19.41
2023-02-21T13:37:30.727Z,19.29
2023-02-21T13:40:16.496Z,19.31
2023-02-21T13:42:43.198Z,19.48
2023-02-21T13:45:12.679Z,19.43
2023-02-21T13:47:57.316Z,19.51
2023-02-21T13:50:39.418Z,19.70
2023-02-21T13:53:08.800Z,19.79
2023-02-21T13:55:36.747Z,19.93
2023-02-21T13:58:04.880Z,19.99
2023-02-21T14:00:31.227Z,20.02
2023-02-21T14:03:03.083Z,20.24
2023-02-21T14:05:44.524Z,20.07
2023-02-21T14:08:15.223Z,20.18
2023-02-21T14:10:46.606Z,20.43
2023-02-21T14:13:22.520Z,20.38
2023-02-21T14:15:57.281Z,20.37
2023-02-21T14:18:39.189Z,20.18
2023-02-21T14:21:35.582Z,20.25
2023-02-21T14:24:19.628Z,20.15
2023-02-21T14:26:52.188Z,20.25
2023-02-21T14:29:44.633Z,20.29
2023-02-21T14:32:11.049Z,20.20
2023-02-21T14:34:42.537Z,20.48
2023-02-21T14:37:22.831Z,20.29
2023-02-21T14:39:52.940Z,20.18
2023-02-21T14:42:39.265Z,20.24
2023-02-21T14:45:11.463Z,20.50
2023-02-21T14:48:32.127Z,20.64
2023-02-21T14:51:20.695Z,20.60
2023-02-21T14:54:21.461Z,20.76
2023-02-21T14:57:12.642Z,20.57
2023-02-21T14:59:53.837Z,20.66
2023-02-21T15:02:28.058Z,20.59
2023-02-21T15:05:04.824Z,20.76
2023-02-21T15:07:37.043Z,20.98
2023-02-21T15:10:07.730Z,21.11
2023-02-21T15:12:39.791Z,21.16
2023-02-21T15:15:14.305Z,21.19
2023-02-21T15:17:40.854Z,21.19
2023-02-21T15:20:15.685Z,21.33
2023-02-21T15:22:42.958Z,21.41
2023-02-21T15:25:09.360Z,21.51
2023-02-21T15:27:44.842Z,21.60
2023-02-21T15:30:17.632Z,21.62
2023-02-21T15:32:52.937Z,21.60
2023-02-21T15:35:25.014Z,21.57
2023-02-21T15:37:52.117Z,21.54
2023-02-21T15:40:23.267Z,21.63
2023-02-21T15:42:52.584Z,21.69
2023-02-21T15:45:24.087Z,21.81
2023-02-21T15:47:51.201Z,21.93
2023-02-21T15:50:32.927Z,21.96
2023-02-21T15:53:21.244Z,21.97
2023-02-21T15:55:49.613Z,21.94
2023-02-21T15:58:20.250Z,21.88
2023-02-21T16:00:49.212Z,21.89
2023-02-21T16:03:42.981Z,21.88
2023-02-21T16:06:27.991Z,21.76
2023-02-21T16:08:58.739Z,21.61
2023-02-21T16:11:38.000Z,21.53
2023-02-21T16:14:04.642Z,21.43
2023-02-21T16:16:35.645Z,21.20
2023-02-21T16:19:02.250Z,20.92
2023-02-21T16:21:29.797Z,20.60
2023-02-21T16:23:56.299Z,20.25
2023-02-21T16:26:28.115Z,19.90
2023-02-21T16:28:58.396Z,19.55
2023-02-21T16:31:31.365Z,19.17
2023-02-21T16:33:58.049Z,18.79
2023-02-21T16:36:29.640Z,18.41
2023-02-21T16:38:57.310Z,18.05
2023-02-21T16:41:24.568Z,17.69
2023-02-21T16:43:51.317Z,17.37
2023-02-21T16:46:26.492Z,17.09
2023-02-21T16:48:55.254Z,16.78
2023-02-21T16:51:21.879Z,16.47
2023-02-21T16:53:48.924Z,16.22
2023-02-21T16:56:15.851Z,15.98
2023-02-21T16:58:46.047Z,15.77
2023-02-21T17:01:16.421Z,15.49
2023-02-21T17:03:43.093Z,15.24
2023-02-21T17:06:19.100Z,15.01
2023-02-21T17:08:46.023Z,14.82
2023-02-21T17:11:13.043Z,14.64
2023-02-21T17:13:39.776Z,14.50
2023-02-21T17:16:07.104Z,14.32
2023-02-21T17:18:33.591Z,14.14
2023-02-21T17:21:00.265Z,13.99
2023-02-21T17:23:27.409Z,13.83
2023-02-21T17:25:54.105Z,13.68
2023-02-21T17:28:20.670Z,13.54
2023-02-21T17:30:47.638Z,13.40
2023-02-21T17:33:15.121Z,13.28
2023-02-21T17:35:41.553Z,13.16
2023-02-21T17:38:08.125Z,13.03
2023-02-21T17:40:34.620Z,12.87
2023-02-21T17:43:01.132Z,12.70
2023-02-21T17:45:27.564Z,12.53
2023-02-21T17:47:56.870Z,12.40
2023-02-21T17:50:23.409Z,12.26
2023-02-21T17:52:49.809Z,12.14
2023-02-21T17:55:20.645Z,12.05
2023-02-21T17:57:47.199Z,11.97
2023-02-21T18:00:24.640Z,11.87
2023-02-21T18:02:53.449Z,11.73
2023-02-21T18:05:20.297Z,11.62
2023-02-21T18:07:51.591Z,11.57
2023-02-21T18:10:20.346Z,11.48
2023-02-21T18:12:48.222Z,11.43
2023-02-21T18:15:16.475Z,11.34
2023-02-21T18:17:42.914Z,11.28
2023-02-21T18:20:12.098Z,11.22
2023-02-21T18:22:38.569Z,11.16
2023-02-21T18:25:05.963Z,11.08
2023-02-21T18:27:32.395Z,10.97
2023-02-21T18:29:58.905Z,10.87
2023-02-21T18:32:25.849Z,10.82
2023-02-21T18:34:52.492Z,10.79
2023-02-21T18:37:19.694Z,10.74
2023-02-21T18:39:46.127Z,10.70
2023-02-21T18:42:12.512Z,10.62
2023-02-21T18:44:38.914Z,10.58
2023-02-21T18:47:05.540Z,10.53
2023-02-21T18:49:38.446Z,10.44
2023-02-21T18:52:07.168Z,10.41
2023-02-21T18:54:34.125Z,10.35
2023-02-21T18:57:00.742Z,10.27
2023-02-21T18:59:27.269Z,10.19
2023-02-21T19:01:54.870Z,10.14
2023-02-21T19:04:21.684Z,10.04
2023-02-21T19:06:48.143Z,9.98
2023-02-21T19:09:14.590Z,9.92
2023-02-21T19:11:41.027Z,9.84
2023-02-21T19:14:07.452Z,9.80
2023-02-21T19:16:34.040Z,9.75
2023-02-21T19:19:03.386Z,9.73
2023-02-21T19:21:30.126Z,9.70
2023-02-21T19:23:56.524Z,9.67
2023-02-21T19:26:23.014Z,9.62
2023-02-21T19:28:49.420Z,9.57
2023-02-21T19:31:19.758Z,9.49
2023-02-21T19:33:46.706Z,9.43
2023-02-21T19:36:13.218Z,9.40
2023-02-21T19:38:39.744Z,9.38
2023-02-21T19:41:07.385Z,9.38
2023-02-21T19:43:34.837Z,9.40
2023-02-21T19:46:01.397Z,9.38
2023-02-21T19:48:28.048Z,9.35
2023-02-21T19:50:54.614Z,9.28
2023-02-21T19:53:21.213Z,9.24
2023-02-21T19:55:47.714Z,9.20
2023-02-21T19:58:14.191Z,9.18
2023-02-21T20:00:43.967Z,9.13
2023-02-21T20:03:11.439Z,9.07
2023-02-21T20:05:38.011Z,9.02
2023-02-21T20:08:04.988Z,8.95
2023-02-21T20:10:31.593Z,8.89
2023-02-21T20:12:58.534Z,8.84
2023-02-21T20:15:25.311Z,8.77
2023-02-21T20:17:53.383Z,8.71
2023-02-21T20:20:20.197Z,8.67
2023-02-21T20:22:46.538Z,8.65
2023-02-21T20:25:12.967Z,8.63
2023-02-21T20:27:41.645Z,8.58
2023-02-21T20:30:09.133Z,8.58
2023-02-21T20:32:35.657Z,8.55
2023-02-21T20:35:02.604Z,8.53
2023-02-21T20:37:31.269Z,8.50
2023-02-21T20:39:58.585Z,8.48
2023-02-21T20:42:25.356Z,8.45
2023-02-21T20:44:52.067Z,8.43
2023-02-21T20:47:19.590Z,8.41
2023-02-21T20:49:46.902Z,8.39
2023-02-21T20:52:14.895Z,8.34
2023-02-21T20:54:41.836Z,8.27
2023-02-21T20:57:09.399Z,8.20
2023-02-21T20:59:38.835Z,8.11
2023-02-21T21:02:06.581Z,8.00
2023-02-21T21:04:38.476Z,7.91
2023-02-21T21:07:14.158Z,7.83
2023-02-21T21:09:41.175Z,7.77
2023-02-21T21:12:11.267Z,7.71
2023-02-21T21:14:41.522Z,7.68
2023-02-21T21:17:09.301Z,7.66
2023-02-21T21:19:36.881Z,7.64
2023-02-21T21:22:09.848Z,7.64
2023-02-21T21:24:37.932Z,7.61
2023-02-21T21:27:08.718Z,7.60
2023-02-21T21:29:43.098Z,7.58
2023-02-21T21:32:18.146Z,7.56
2023-02-21T21:34:47.159Z,7.51
2023-02-21T21:37:14.528Z,7.47
2023-02-21T21:39:49.367Z,7.41
2023-02-21T21:42:19.881Z,7.33
2023-02-21T21:44:54.816Z,7.29
2023-02-21T21:47:22.678Z,7.25
2023-02-21T21:49:52.724Z,7.27
2023-02-21T21:52:20.677Z,7.29
2023-02-21T21:54:47.584Z,7.27
2023-02-21T21:57:16.479Z,7.26
2023-02-21T21:59:43.824Z,7.25
2023-02-21T22:02:11.336Z,7.25
2023-02-21T22:04:39.576Z,7.25
2023-02-21T22:07:11.955Z,7.25
2023-02-21T22:09:39.138Z,7.23
2023-02-21T22:12:07.723Z,7.21
2023-02-21T22:14:35.695Z,7.17
2023-02-21T22:17:02.186Z,7.16
2023-02-21T22:19:28.973Z,7.16
2023-02-21T22:21:56.838Z,7.15
2023-02-21T22:24:24.366Z,7.12
2023-02-21T22:26:54.690Z,7.08
2023-02-21T22:29:22.395Z,6.99
2023-02-21T22:31:51.196Z,6.94
2023-02-21T22:34:24.245Z,6.88
2023-02-21T22:36:55.269Z,6.80
2023-02-21T22:39:23.683Z,6.73
2023-02-21T22:41:50.651Z,6.65
2023-02-21T22:44:17.756Z,6.60
2023-02-21T22:46:57.894Z,6.51
2023-02-21T22:49:26.296Z,6.43
2023-02-21T22:51:52.809Z,6.39
2023-02-21T22:54:19.355Z,6.34
2023-02-21T22:56:50.844Z,6.31
2023-02-21T22:59:19.792Z,6.28
2023-02-21T23:01:46.753Z,6.23
2023-02-21T23:04:25.224Z,6.20
2023-02-21T23:06:54.254Z,6.19
2023-02-21T23:09:21.487Z,6.18
2023-02-21T23:11:51.217Z,6.17
2023-02-21T23:14:19.317Z,6.16
2023-02-21T23:16:45.726Z,6.18
2023-02-21T23:19:12.164Z,6.19
2023-02-21T23:21:46.521Z,6.18
2023-02-21T23:24:15.280Z,6.14
2023-02-21T23:26:46.555Z,6.12
2023-02-21T23:29:14.984Z,6.12
2023-02-21T23:31:41.532Z,6.12
2023-02-21T23:34:09.949Z,6.12
2023-02-21T23:36:39.261Z,6.13
2023-02-21T23:39:09.014Z,6.12
2023-02-21T23:41:40.821Z,6.07
2023-02-21T23:44:10.876Z,6.02
2023-02-21T23:46:43.148Z,5.98
2023-02-21T23:49:11.489Z,5.92
2023-02-21T23:51:38.692Z,5.89
2023-02-21T23:54:07.159Z,5.84
2023-02-21T23:56:35.532Z,5.80
2023-02-21T23:59:05.798Z,5.77
